sensor_id;sensor_type;location;lat;lon;timestamp;P1;durP1;ratioP1;P2;durP2;ratioP2
20124;SDS011;10223;50.862;4.360;2023-05-02T00:01:51;67.40;;;30.90;;
20124;SDS011;10223;50.862;4.360;2023-05-02T00:04:18;58.33;;;26.10;;
20124;SDS011;10223;50.862;4.360;2023-05-02T00:06:46;60.17;;;26.50;;
20124;SDS011;10223;50.862;4.360;2023-05-02T00:09:13;55.07;;;24.60;;
20124;SDS011;10223;50.862;4.360;2023-05-02T00:11:40;49.43;;;23.40;;
20124;SDS011;10223;50.862;4.360;2023-05-02T00:14:07;48.27;;;22.37;;
20124;SDS011;10223;50.862;4.360;2023-05-02T00:16:34;50.23;;;21.93;;
20124;SDS011;10223;50.862;4.360;2023-05-02T00:19:01;42.27;;;21.33;;
20124;SDS011;10223;50.862;4.360;2023-05-02T00:21:28;39.33;;;21.90;;
20124;SDS011;10223;50.862;4.360;2023-05-02T00:23:56;42.73;;;20.57;;
20124;SDS011;10223;50.862;4.360;2023-05-02T00:26:24;45.57;;;21.50;;
20124;SDS011;10223;50.862;4.360;2023-05-02T00:28:51;47.43;;;21.77;;
20124;SDS011;10223;50.862;4.360;2023-05-02T00:31:18;44.80;;;22.53;;
20124;SDS011;10223;50.862;4.360;2023-05-02T00:33:45;49.00;;;23.17;;
20124;SDS011;10223;50.862;4.360;2023-05-02T00:36:12;45.63;;;22.93;;
20124;SDS011;10223;50.862;4.360;2023-05-02T00:38:39;47.77;;;22.30;;
20124;SDS011;10223;50.862;4.360;2023-05-02T00:41:07;42.20;;;21.50;;
20124;SDS011;10223;50.862;4.360;2023-05-02T00:43:34;49.83;;;22.40;;
20124;SDS011;10223;50.862;4.360;2023-05-02T00:46:03;50.40;;;22.77;;
20124;SDS011;10223;50.862;4.360;2023-05-02T00:48:30;47.30;;;23.47;;
20124;SDS011;10223;50.862;4.360;2023-05-02T00:50:57;48.57;;;23.13;;
20124;SDS011;10223;50.862;4.360;2023-05-02T00:53:24;48.30;;;23.27;;
20124;SDS011;10223;50.862;4.360;2023-05-02T00:55:51;52.43;;;23.10;;
20124;SDS011;10223;50.862;4.360;2023-05-02T00:58:20;49.57;;;23.60;;
20124;SDS011;10223;50.862;4.360;2023-05-02T01:00:51;46.20;;;21.57;;
20124;SDS011;10223;50.862;4.360;2023-05-02T01:03:31;46.70;;;23.37;;
20124;SDS011;10223;50.862;4.360;2023-05-02T01:06:09;44.57;;;22.90;;
20124;SDS011;10223;50.862;4.360;2023-05-02T01:08:44;44.90;;;22.53;;
20124;SDS011;10223;50.862;4.360;2023-05-02T01:11:30;47.23;;;22.47;;
20124;SDS011;10223;50.862;4.360;2023-05-02T01:14:06;48.73;;;24.63;;
20124;SDS011;10223;50.862;4.360;2023-05-02T01:16:36;52.50;;;23.93;;
20124;SDS011;10223;50.862;4.360;2023-05-02T01:19:07;46.50;;;23.43;;
20124;SDS011;10223;50.862;4.360;2023-05-02T01:21:37;51.37;;;24.40;;
20124;SDS011;10223;50.862;4.360;2023-05-02T01:24:05;48.57;;;23.77;;
20124;SDS011;10223;50.862;4.360;2023-05-02T01:26:42;51.87;;;25.37;;
20124;SDS011;10223;50.862;4.360;2023-05-02T01:29:18;55.87;;;25.83;;
20124;SDS011;10223;50.862;4.360;2023-05-02T01:31:48;51.77;;;25.43;;
20124;SDS011;10223;50.862;4.360;2023-05-02T01:34:16;53.33;;;24.93;;
20124;SDS011;10223;50.862;4.360;2023-05-02T01:36:46;53.80;;;26.13;;
20124;SDS011;10223;50.862;4.360;2023-05-02T01:39:15;49.67;;;24.20;;
20124;SDS011;10223;50.862;4.360;2023-05-02T01:41:45;52.73;;;25.80;;
20124;SDS011;10223;50.862;4.360;2023-05-02T01:44:15;56.37;;;25.77;;
20124;SDS011;10223;50.862;4.360;2023-05-02T01:46:45;54.13;;;25.07;;
20124;SDS011;10223;50.862;4.360;2023-05-02T01:49:12;52.57;;;24.87;;
20124;SDS011;10223;50.862;4.360;2023-05-02T01:51:41;54.53;;;24.60;;
20124;SDS011;10223;50.862;4.360;2023-05-02T01:54:11;49.17;;;24.93;;
20124;SDS011;10223;50.862;4.360;2023-05-02T01:56:40;44.73;;;23.53;;
20124;SDS011;10223;50.862;4.360;2023-05-02T01:59:10;47.07;;;23.80;;
20124;SDS011;10223;50.862;4.360;2023-05-02T02:01:40;45.97;;;22.63;;
20124;SDS011;10223;50.862;4.360;2023-05-02T02:04:09;49.27;;;23.03;;
20124;SDS011;10223;50.862;4.360;2023-05-02T02:06:37;48.80;;;22.43;;
20124;SDS011;10223;50.862;4.360;2023-05-02T02:09:07;48.00;;;23.93;;
20124;SDS011;10223;50.862;4.360;2023-05-02T02:11:34;52.40;;;24.27;;
20124;SDS011;10223;50.862;4.360;2023-05-02T02:14:04;48.00;;;23.10;;
20124;SDS011;10223;50.862;4.360;2023-05-02T02:16:37;52.50;;;23.83;;
20124;SDS011;10223;50.862;4.360;2023-05-02T02:19:09;51.30;;;23.97;;
20124;SDS011;10223;50.862;4.360;2023-05-02T02:21:40;49.03;;;24.57;;
20124;SDS011;10223;50.862;4.360;2023-05-02T02:24:08;48.13;;;22.60;;
20124;SDS011;10223;50.862;4.360;2023-05-02T02:26:35;42.47;;;23.60;;
20124;SDS011;10223;50.862;4.360;2023-05-02T02:29:03;49.63;;;23.90;;
20124;SDS011;10223;50.862;4.360;2023-05-02T02:31:30;44.80;;;23.17;;
20124;SDS011;10223;50.862;4.360;2023-05-02T02:33:57;45.07;;;22.50;;
20124;SDS011;10223;50.862;4.360;2023-05-02T02:36:29;50.53;;;23.37;;
20124;SDS011;10223;50.862;4.360;2023-05-02T02:39:01;44.80;;;22.47;;
20124;SDS011;10223;50.862;4.360;2023-05-02T02:41:37;46.50;;;23.20;;
20124;SDS011;10223;50.862;4.360;2023-05-02T02:44:10;43.23;;;22.60;;
20124;SDS011;10223;50.862;4.360;2023-05-02T02:46:45;43.47;;;22.00;;
20124;SDS011;10223;50.862;4.360;2023-05-02T02:49:20;42.93;;;21.47;;
20124;SDS011;10223;50.862;4.360;2023-05-02T02:51:56;45.47;;;22.37;;
20124;SDS011;10223;50.862;4.360;2023-05-02T02:54:28;41.63;;;20.70;;
20124;SDS011;10223;50.862;4.360;2023-05-02T02:57:01;43.50;;;21.23;;
20124;SDS011;10223;50.862;4.360;2023-05-02T02:59:33;36.63;;;18.63;;
20124;SDS011;10223;50.862;4.360;2023-05-02T03:02:06;36.13;;;20.20;;
20124;SDS011;10223;50.862;4.360;2023-05-02T03:04:35;37.33;;;20.33;;
20124;SDS011;10223;50.862;4.360;2023-05-02T03:07:05;42.10;;;20.17;;
20124;SDS011;10223;50.862;4.360;2023-05-02T03:09:41;38.83;;;19.60;;
20124;SDS011;10223;50.862;4.360;2023-05-02T03:12:08;37.37;;;20.10;;
20124;SDS011;10223;50.862;4.360;2023-05-02T03:14:36;39.40;;;20.40;;
20124;SDS011;10223;50.862;4.360;2023-05-02T03:17:04;42.17;;;21.27;;
20124;SDS011;10223;50.862;4.360;2023-05-02T03:19:32;44.87;;;20.83;;
20124;SDS011;10223;50.862;4.360;2023-05-02T03:21:59;41.50;;;20.83;;
20124;SDS011;10223;50.862;4.360;2023-05-02T03:24:28;39.47;;;19.70;;
20124;SDS011;10223;50.862;4.360;2023-05-02T03:26:55;36.27;;;19.37;;
20124;SDS011;10223;50.862;4.360;2023-05-02T03:29:23;35.53;;;18.17;;
20124;SDS011;10223;50.862;4.360;2023-05-02T03:31:50;37.03;;;19.90;;
20124;SDS011;10223;50.862;4.360;2023-05-02T03:34:17;35.50;;;19.77;;
20124;SDS011;10223;50.862;4.360;2023-05-02T03:36:46;36.67;;;18.73;;
20124;SDS011;10223;50.862;4.360;2023-05-02T03:39:13;40.13;;;18.90;;
20124;SDS011;10223;50.862;4.360;2023-05-02T03:41:41;40.97;;;20.27;;
20124;SDS011;10223;50.862;4.360;2023-05-02T03:44:08;39.40;;;20.23;;
20124;SDS011;10223;50.862;4.360;2023-05-02T03:46:35;36.10;;;19.73;;
20124;SDS011;10223;50.862;4.360;2023-05-02T03:49:02;37.27;;;19.73;;
20124;SDS011;10223;50.862;4.360;2023-05-02T03:51:29;40.47;;;20.20;;
20124;SDS011;10223;50.862;4.360;2023-05-02T03:53:57;42.37;;;21.23;;
20124;SDS011;10223;50.862;4.360;2023-05-02T03:56:28;44.70;;;21.77;;
20124;SDS011;10223;50.862;4.360;2023-05-02T03:58:56;43.03;;;21.10;;
20124;SDS011;10223;50.862;4.360;2023-05-02T04:01:23;43.83;;;21.40;;
20124;SDS011;10223;50.862;4.360;2023-05-02T04:03:50;46.27;;;21.47;;
20124;SDS011;10223;50.862;4.360;2023-05-02T04:06:17;48.43;;;22.40;;
20124;SDS011;10223;50.862;4.360;2023-05-02T04:08:44;47.87;;;21.90;;
20124;SDS011;10223;50.862;4.360;2023-05-02T04:11:11;51.67;;;23.37;;
20124;SDS011;10223;50.862;4.360;2023-05-02T04:13:38;47.57;;;23.00;;
20124;SDS011;10223;50.862;4.360;2023-05-02T04:16:07;46.80;;;22.63;;
20124;SDS011;10223;50.862;4.360;2023-05-02T04:18:34;49.17;;;24.30;;
20124;SDS011;10223;50.862;4.360;2023-05-02T04:21:01;49.10;;;22.20;;
20124;SDS011;10223;50.862;4.360;2023-05-02T04:23:28;52.23;;;23.50;;
20124;SDS011;10223;50.862;4.360;2023-05-02T04:25:55;50.00;;;23.17;;
20124;SDS011;10223;50.862;4.360;2023-05-02T04:28:21;43.10;;;22.03;;
20124;SDS011;10223;50.862;4.360;2023-05-02T04:30:49;45.87;;;23.33;;
20124;SDS011;10223;50.862;4.360;2023-05-02T04:33:17;42.57;;;21.17;;
20124;SDS011;10223;50.862;4.360;2023-05-02T04:35:44;48.83;;;22.93;;
20124;SDS011;10223;50.862;4.360;2023-05-02T04:38:11;47.13;;;22.37;;
20124;SDS011;10223;50.862;4.360;2023-05-02T04:40:38;48.10;;;22.90;;
20124;SDS011;10223;50.862;4.360;2023-05-02T04:43:05;45.27;;;22.83;;
20124;SDS011;10223;50.862;4.360;2023-05-02T04:45:33;51.23;;;23.97;;
20124;SDS011;10223;50.862;4.360;2023-05-02T04:48:00;50.87;;;24.10;;
20124;SDS011;10223;50.862;4.360;2023-05-02T04:50:29;52.20;;;24.67;;
20124;SDS011;10223;50.862;4.360;2023-05-02T04:52:56;49.27;;;22.93;;
20124;SDS011;10223;50.862;4.360;2023-05-02T04:55:23;49.57;;;24.13;;
20124;SDS011;10223;50.862;4.360;2023-05-02T04:57:50;51.47;;;23.93;;
20124;SDS011;10223;50.862;4.360;2023-05-02T05:00:17;49.50;;;23.77;;
20124;SDS011;10223;50.862;4.360;2023-05-02T05:02:43;50.20;;;23.57;;
20124;SDS011;10223;50.862;4.360;2023-05-02T05:05:10;46.67;;;23.03;;
20124;SDS011;10223;50.862;4.360;2023-05-02T05:07:38;43.37;;;22.47;;
20124;SDS011;10223;50.862;4.360;2023-05-02T05:10:07;51.07;;;22.73;;
20124;SDS011;10223;50.862;4.360;2023-05-02T05:12:35;45.87;;;22.13;;
20124;SDS011;10223;50.862;4.360;2023-05-02T05:15:02;45.97;;;22.80;;
20124;SDS011;10223;50.862;4.360;2023-05-02T05:17:31;47.17;;;23.07;;
20124;SDS011;10223;50.862;4.360;2023-05-02T05:19:58;45.47;;;22.70;;
20124;SDS011;10223;50.862;4.360;2023-05-02T05:22:25;45.53;;;23.23;;
20124;SDS011;10223;50.862;4.360;2023-05-02T05:24:53;43.97;;;21.80;;
20124;SDS011;10223;50.862;4.360;2023-05-02T05:27:20;36.60;;;19.87;;
20124;SDS011;10223;50.862;4.360;2023-05-02T05:29:47;38.70;;;20.13;;
20124;SDS011;10223;50.862;4.360;2023-05-02T05:32:14;41.97;;;19.27;;
20124;SDS011;10223;50.862;4.360;2023-05-02T05:34:41;44.30;;;21.17;;
20124;SDS011;10223;50.862;4.360;2023-05-02T05:37:08;34.63;;;18.90;;
20124;SDS011;10223;50.862;4.360;2023-05-02T05:39:34;42.73;;;20.53;;
20124;SDS011;10223;50.862;4.360;2023-05-02T05:42:03;40.17;;;19.23;;
20124;SDS011;10223;50.862;4.360;2023-05-02T05:44:30;39.47;;;19.47;;
20124;SDS011;10223;50.862;4.360;2023-05-02T05:46:58;41.23;;;19.53;;
20124;SDS011;10223;50.862;4.360;2023-05-02T05:49:25;39.73;;;20.13;;
20124;SDS011;10223;50.862;4.360;2023-05-02T05:51:51;41.80;;;18.47;;
20124;SDS011;10223;50.862;4.360;2023-05-02T05:54:18;38.00;;;19.40;;
20124;SDS011;10223;50.862;4.360;2023-05-02T05:56:45;32.50;;;18.37;;
20124;SDS011;10223;50.862;4.360;2023-05-02T05:59:14;37.30;;;18.67;;
20124;SDS011;10223;50.862;4.360;2023-05-02T06:01:41;36.30;;;18.33;;
20124;SDS011;10223;50.862;4.360;2023-05-02T06:04:08;37.20;;;18.57;;
20124;SDS011;10223;50.862;4.360;2023-05-02T06:06:35;36.53;;;18.70;;
20124;SDS011;10223;50.862;4.360;2023-05-02T06:09:02;38.90;;;18.63;;
20124;SDS011;10223;50.862;4.360;2023-05-02T06:11:29;40.30;;;18.40;;
20124;SDS011;10223;50.862;4.360;2023-05-02T06:13:56;35.27;;;17.77;;
20124;SDS011;10223;50.862;4.360;2023-05-02T06:16:24;34.80;;;18.17;;
20124;SDS011;10223;50.862;4.360;2023-05-02T06:18:51;36.17;;;18.30;;
20124;SDS011;10223;50.862;4.360;2023-05-02T06:21:18;36.33;;;18.23;;
20124;SDS011;10223;50.862;4.360;2023-05-02T06:23:45;31.53;;;18.37;;
20124;SDS011;10223;50.862;4.360;2023-05-02T06:26:11;34.63;;;17.93;;
20124;SDS011;10223;50.862;4.360;2023-05-02T06:28:39;34.60;;;19.37;;
20124;SDS011;10223;50.862;4.360;2023-05-02T06:31:05;33.67;;;19.47;;
20124;SDS011;10223;50.862;4.360;2023-05-02T06:33:35;34.83;;;18.03;;
20124;SDS011;10223;50.862;4.360;2023-05-02T06:36:02;37.13;;;18.83;;
20124;SDS011;10223;50.862;4.360;2023-05-02T06:38:29;33.63;;;18.50;;
20124;SDS011;10223;50.862;4.360;2023-05-02T06:40:56;36.27;;;19.03;;
20124;SDS011;10223;50.862;4.360;2023-05-02T06:43:23;38.37;;;20.00;;
20124;SDS011;10223;50.862;4.360;2023-05-02T06:45:51;35.13;;;19.93;;
20124;SDS011;10223;50.862;4.360;2023-05-02T06:48:19;46.17;;;21.80;;
20124;SDS011;10223;50.862;4.360;2023-05-02T06:50:48;41.83;;;21.77;;
20124;SDS011;10223;50.862;4.360;2023-05-02T06:53:16;43.10;;;22.43;;
20124;SDS011;10223;50.862;4.360;2023-05-02T06:55:45;38.90;;;20.37;;
20124;SDS011;10223;50.862;4.360;2023-05-02T06:58:12;44.80;;;21.00;;
20124;SDS011;10223;50.862;4.360;2023-05-02T07:00:39;41.87;;;22.13;;
20124;SDS011;10223;50.862;4.360;2023-05-02T07:03:06;44.27;;;22.00;;
20124;SDS011;10223;50.862;4.360;2023-05-02T07:05:35;44.77;;;22.83;;
20124;SDS011;10223;50.862;4.360;2023-05-02T07:08:03;42.70;;;22.90;;
20124;SDS011;10223;50.862;4.360;2023-05-02T07:10:30;39.77;;;22.40;;
20124;SDS011;10223;50.862;4.360;2023-05-02T07:12:57;41.40;;;23.03;;
20124;SDS011;10223;50.862;4.360;2023-05-02T07:15:24;39.23;;;23.23;;
20124;SDS011;10223;50.862;4.360;2023-05-02T07:17:51;40.83;;;22.50;;
20124;SDS011;10223;50.862;4.360;2023-05-02T07:20:18;37.17;;;22.87;;
20124;SDS011;10223;50.862;4.360;2023-05-02T07:22:45;34.77;;;21.93;;
20124;SDS011;10223;50.862;4.360;2023-05-02T07:25:13;32.13;;;19.83;;
20124;SDS011;10223;50.862;4.360;2023-05-02T07:27:40;30.57;;;20.97;;
20124;SDS011;10223;50.862;4.360;2023-05-02T07:30:07;37.73;;;21.47;;
20124;SDS011;10223;50.862;4.360;2023-05-02T07:32:35;30.43;;;19.13;;
20124;SDS011;10223;50.862;4.360;2023-05-02T07:35:01;32.77;;;18.93;;
20124;SDS011;10223;50.862;4.360;2023-05-02T07:37:31;32.57;;;19.03;;
20124;SDS011;10223;50.862;4.360;2023-05-02T07:39:58;32.73;;;18.13;;
20124;SDS011;10223;50.862;4.360;2023-05-02T07:42:28;31.30;;;17.83;;
20124;SDS011;10223;50.862;4.360;2023-05-02T07:44:55;29.07;;;17.53;;
20124;SDS011;10223;50.862;4.360;2023-05-02T07:47:23;29.27;;;17.27;;
20124;SDS011;10223;50.862;4.360;2023-05-02T07:49:50;34.63;;;18.70;;
20124;SDS011;10223;50.862;4.360;2023-05-02T07:52:18;34.30;;;16.90;;
20124;SDS011;10223;50.862;4.360;2023-05-02T07:54:46;27.33;;;17.20;;
20124;SDS011;10223;50.862;4.360;2023-05-02T07:57:13;45.30;;;20.10;;
20124;SDS011;10223;50.862;4.360;2023-05-02T07:59:42;30.60;;;17.30;;
20124;SDS011;10223;50.862;4.360;2023-05-02T08:02:09;31.23;;;17.60;;
20124;SDS011;10223;50.862;4.360;2023-05-02T08:04:37;23.33;;;14.67;;
20124;SDS011;10223;50.862;4.360;2023-05-02T08:07:04;32.33;;;15.50;;
20124;SDS011;10223;50.862;4.360;2023-05-02T08:09:31;24.07;;;13.90;;
20124;SDS011;10223;50.862;4.360;2023-05-02T08:11:59;20.80;;;12.97;;
20124;SDS011;10223;50.862;4.360;2023-05-02T08:14:26;17.43;;;11.77;;
20124;SDS011;10223;50.862;4.360;2023-05-02T08:16:55;16.40;;;9.23;;
20124;SDS011;10223;50.862;4.360;2023-05-02T08:19:22;18.07;;;8.77;;
20124;SDS011;10223;50.862;4.360;2023-05-02T08:21:49;16.13;;;8.60;;
20124;SDS011;10223;50.862;4.360;2023-05-02T08:24:15;18.07;;;7.57;;
20124;SDS011;10223;50.862;4.360;2023-05-02T08:26:42;13.07;;;7.30;;
20124;SDS011;10223;50.862;4.360;2023-05-02T08:29:09;11.17;;;8.07;;
20124;SDS011;10223;50.862;4.360;2023-05-02T08:31:36;15.23;;;6.60;;
20124;SDS011;10223;50.862;4.360;2023-05-02T08:34:04;11.20;;;6.60;;
20124;SDS011;10223;50.862;4.360;2023-05-02T08:36:31;15.07;;;7.13;;
20124;SDS011;10223;50.862;4.360;2023-05-02T08:38:58;18.07;;;9.93;;
20124;SDS011;10223;50.862;4.360;2023-05-02T08:41:26;12.90;;;8.70;;
20124;SDS011;10223;50.862;4.360;2023-05-02T08:43:54;16.80;;;5.90;;
20124;SDS011;10223;50.862;4.360;2023-05-02T08:46:22;9.70;;;5.00;;
20124;SDS011;10223;50.862;4.360;2023-05-02T08:48:50;10.37;;;5.03;;
20124;SDS011;10223;50.862;4.360;2023-05-02T08:51:20;7.05;;;3.78;;
20124;SDS011;10223;50.862;4.360;2023-05-02T08:53:49;10.82;;;4.70;;
20124;SDS011;10223;50.862;4.360;2023-05-02T08:56:18;10.90;;;3.90;;
20124;SDS011;10223;50.862;4.360;2023-05-02T08:58:45;5.35;;;3.40;;
20124;SDS011;10223;50.862;4.360;2023-05-02T09:01:13;7.70;;;3.00;;
20124;SDS011;10223;50.862;4.360;2023-05-02T09:03:42;9.32;;;3.50;;
20124;SDS011;10223;50.862;4.360;2023-05-02T09:06:09;12.43;;;3.63;;
20124;SDS011;10223;50.862;4.360;2023-05-02T09:08:39;12.23;;;5.13;;
20124;SDS011;10223;50.862;4.360;2023-05-02T09:11:08;12.15;;;4.25;;
20124;SDS011;10223;50.862;4.360;2023-05-02T09:13:36;12.40;;;4.32;;
20124;SDS011;10223;50.862;4.360;2023-05-02T09:16:04;7.70;;;4.22;;
20124;SDS011;10223;50.862;4.360;2023-05-02T09:18:33;10.32;;;5.88;;
20124;SDS011;10223;50.862;4.360;2023-05-02T09:21:03;14.13;;;6.47;;
20124;SDS011;10223;50.862;4.360;2023-05-02T09:23:36;14.15;;;6.10;;
20124;SDS011;10223;50.862;4.360;2023-05-02T09:26:17;14.52;;;6.63;;
20124;SDS011;10223;50.862;4.360;2023-05-02T09:28:45;14.13;;;5.37;;
20124;SDS011;10223;50.862;4.360;2023-05-02T09:31:14;11.50;;;5.60;;
20124;SDS011;10223;50.862;4.360;2023-05-02T09:33:42;12.90;;;5.55;;
20124;SDS011;10223;50.862;4.360;2023-05-02T09:36:11;11.30;;;6.35;;
20124;SDS011;10223;50.862;4.360;2023-05-02T09:38:40;13.10;;;6.13;;
20124;SDS011;10223;50.862;4.360;2023-05-02T09:41:07;9.35;;;5.50;;
20124;SDS011;10223;50.862;4.360;2023-05-02T09:43:36;11.10;;;5.65;;
20124;SDS011;10223;50.862;4.360;2023-05-02T09:46:04;8.00;;;5.13;;
20124;SDS011;10223;50.862;4.360;2023-05-02T09:48:32;10.10;;;5.43;;
20124;SDS011;10223;50.862;4.360;2023-05-02T09:51:17;9.30;;;5.20;;
20124;SDS011;10223;50.862;4.360;2023-05-02T09:53:45;14.07;;;5.88;;
20124;SDS011;10223;50.862;4.360;2023-05-02T09:56:12;10.85;;;6.00;;
20124;SDS011;10223;50.862;4.360;2023-05-02T09:58:41;14.60;;;4.78;;
20124;SDS011;10223;50.862;4.360;2023-05-02T10:01:12;7.03;;;4.10;;
20124;SDS011;10223;50.862;4.360;2023-05-02T10:03:41;6.85;;;4.40;;
20124;SDS011;10223;50.862;4.360;2023-05-02T10:06:10;14.43;;;5.55;;
20124;SDS011;10223;50.862;4.360;2023-05-02T10:08:38;11.63;;;4.43;;
20124;SDS011;10223;50.862;4.360;2023-05-02T10:11:06;19.63;;;5.22;;
20124;SDS011;10223;50.862;4.360;2023-05-02T10:13:34;7.50;;;4.22;;
20124;SDS011;10223;50.862;4.360;2023-05-02T10:16:05;8.93;;;4.07;;
20124;SDS011;10223;50.862;4.360;2023-05-02T10:18:36;9.90;;;4.15;;
20124;SDS011;10223;50.862;4.360;2023-05-02T10:21:07;6.45;;;4.45;;
20124;SDS011;10223;50.862;4.360;2023-05-02T10:23:36;9.20;;;4.55;;
20124;SDS011;10223;50.862;4.360;2023-05-02T10:26:06;9.55;;;4.75;;
20124;SDS011;10223;50.862;4.360;2023-05-02T10:28:34;9.45;;;4.43;;
20124;SDS011;10223;50.862;4.360;2023-05-02T10:31:02;8.23;;;5.05;;
20124;SDS011;10223;50.862;4.360;2023-05-02T10:33:34;9.93;;;4.60;;
20124;SDS011;10223;50.862;4.360;2023-05-02T10:36:03;12.73;;;4.55;;
20124;SDS011;10223;50.862;4.360;2023-05-02T10:38:33;12.77;;;4.97;;
20124;SDS011;10223;50.862;4.360;2023-05-02T10:41:02;8.98;;;4.63;;
20124;SDS011;10223;50.862;4.360;2023-05-02T10:43:33;12.40;;;5.72;;
20124;SDS011;10223;50.862;4.360;2023-05-02T10:46:02;13.25;;;5.53;;
20124;SDS011;10223;50.862;4.360;2023-05-02T10:48:30;9.60;;;6.32;;
20124;SDS011;10223;50.862;4.360;2023-05-02T10:50:57;14.80;;;6.70;;
20124;SDS011;10223;50.862;4.360;2023-05-02T10:53:27;20.40;;;6.00;;
20124;SDS011;10223;50.862;4.360;2023-05-02T10:56:13;13.23;;;5.65;;
20124;SDS011;10223;50.862;4.360;2023-05-02T10:58:42;13.73;;;5.95;;
20124;SDS011;10223;50.862;4.360;2023-05-02T11:04:00;10.25;;;6.35;;
20124;SDS011;10223;50.862;4.360;2023-05-02T11:06:28;10.27;;;5.55;;
20124;SDS011;10223;50.862;4.360;2023-05-02T11:11:59;10.77;;;5.35;;
20124;SDS011;10223;50.862;4.360;2023-05-02T11:14:41;12.85;;;5.85;;
20124;SDS011;10223;50.862;4.360;2023-05-02T11:17:18;12.93;;;5.65;;
20124;SDS011;10223;50.862;4.360;2023-05-02T11:22:52;15.30;;;5.40;;
20124;SDS011;10223;50.862;4.360;2023-05-02T11:25:47;16.75;;;7.68;;
20124;SDS011;10223;50.862;4.360;2023-05-02T11:34:27;12.63;;;5.43;;
20124;SDS011;10223;50.862;4.360;2023-05-02T11:37:09;18.00;;;5.35;;
20124;SDS011;10223;50.862;4.360;2023-05-02T11:39:38;15.23;;;5.88;;
20124;SDS011;10223;50.862;4.360;2023-05-02T11:42:06;9.65;;;6.18;;
20124;SDS011;10223;50.862;4.360;2023-05-02T11:44:33;12.52;;;5.50;;
20124;SDS011;10223;50.862;4.360;2023-05-02T11:47:17;15.93;;;5.43;;
20124;SDS011;10223;50.862;4.360;2023-05-02T11:49:45;10.57;;;5.55;;
20124;SDS011;10223;50.862;4.360;2023-05-02T11:52:12;11.20;;;5.63;;
20124;SDS011;10223;50.862;4.360;2023-05-02T11:54:41;11.02;;;6.18;;
20124;SDS011;10223;50.862;4.360;2023-05-02T11:57:08;14.35;;;5.55;;
20124;SDS011;10223;50.862;4.360;2023-05-02T11:59:47;14.02;;;6.03;;
20124;SDS011;10223;50.862;4.360;2023-05-02T12:02:14;11.55;;;5.07;;
20124;SDS011;10223;50.862;4.360;2023-05-02T12:04:41;10.30;;;4.65;;
20124;SDS011;10223;50.862;4.360;2023-05-02T12:07:09;11.35;;;4.43;;
20124;SDS011;10223;50.862;4.360;2023-05-02T12:09:36;10.18;;;4.20;;
20124;SDS011;10223;50.862;4.360;2023-05-02T12:12:18;13.45;;;3.85;;
20124;SDS011;10223;50.862;4.360;2023-05-02T12:14:45;7.55;;;4.53;;
20124;SDS011;10223;50.862;4.360;2023-05-02T12:17:12;8.55;;;4.53;;
20124;SDS011;10223;50.862;4.360;2023-05-02T12:19:40;13.05;;;5.35;;
20124;SDS011;10223;50.862;4.360;2023-05-02T12:22:08;12.98;;;5.78;;
20124;SDS011;10223;50.862;4.360;2023-05-02T12:24:35;13.23;;;4.30;;
20124;SDS011;10223;50.862;4.360;2023-05-02T12:29:48;12.05;;;4.93;;
20124;SDS011;10223;50.862;4.360;2023-05-02T12:32:26;17.52;;;4.97;;
20124;SDS011;10223;50.862;4.360;2023-05-02T12:34:54;14.73;;;6.40;;
20124;SDS011;10223;50.862;4.360;2023-05-02T12:37:21;9.98;;;5.10;;
20124;SDS011;10223;50.862;4.360;2023-05-02T12:39:48;14.00;;;4.78;;
20124;SDS011;10223;50.862;4.360;2023-05-02T12:42:19;10.25;;;4.75;;
20124;SDS011;10223;50.862;4.360;2023-05-02T12:44:50;8.77;;;4.10;;
20124;SDS011;10223;50.862;4.360;2023-05-02T12:47:17;14.15;;;4.85;;
20124;SDS011;10223;50.862;4.360;2023-05-02T12:49:48;11.52;;;4.70;;
20124;SDS011;10223;50.862;4.360;2023-05-02T12:52:16;11.10;;;6.45;;
20124;SDS011;10223;50.862;4.360;2023-05-02T12:54:43;6.75;;;3.63;;
20124;SDS011;10223;50.862;4.360;2023-05-02T12:57:10;7.95;;;4.70;;
20124;SDS011;10223;50.862;4.360;2023-05-02T12:59:49;10.70;;;4.57;;
20124;SDS011;10223;50.862;4.360;2023-05-02T13:02:17;9.82;;;4.28;;
20124;SDS011;10223;50.862;4.360;2023-05-02T13:04:44;10.18;;;4.15;;
20124;SDS011;10223;50.862;4.360;2023-05-02T13:07:12;15.18;;;4.93;;
20124;SDS011;10223;50.862;4.360;2023-05-02T13:09:39;16.67;;;4.72;;
20124;SDS011;10223;50.862;4.360;2023-05-02T13:12:06;8.88;;;4.25;;
20124;SDS011;10223;50.862;4.360;2023-05-02T13:14:33;10.80;;;4.20;;
20124;SDS011;10223;50.862;4.360;2023-05-02T13:17:01;7.88;;;3.83;;
20124;SDS011;10223;50.862;4.360;2023-05-02T13:19:28;11.85;;;3.65;;
20124;SDS011;10223;50.862;4.360;2023-05-02T13:21:55;10.95;;;3.75;;
20124;SDS011;10223;50.862;4.360;2023-05-02T13:24:22;8.98;;;4.22;;
20124;SDS011;10223;50.862;4.360;2023-05-02T13:26:49;14.93;;;3.65;;
20124;SDS011;10223;50.862;4.360;2023-05-02T13:29:16;19.15;;;3.88;;
20124;SDS011;10223;50.862;4.360;2023-05-02T13:31:43;13.07;;;3.80;;
20124;SDS011;10223;50.862;4.360;2023-05-02T13:34:11;17.50;;;4.63;;
20124;SDS011;10223;50.862;4.360;2023-05-02T13:36:38;12.30;;;3.50;;
20124;SDS011;10223;50.862;4.360;2023-05-02T13:39:10;11.68;;;3.95;;
20124;SDS011;10223;50.862;4.360;2023-05-02T13:41:36;12.90;;;4.43;;
20124;SDS011;10223;50.862;4.360;2023-05-02T13:44:03;15.38;;;4.00;;
20124;SDS011;10223;50.862;4.360;2023-05-02T13:46:30;8.88;;;3.65;;
20124;SDS011;10223;50.862;4.360;2023-05-02T13:49:00;13.77;;;3.55;;
20124;SDS011;10223;50.862;4.360;2023-05-02T13:51:29;9.07;;;3.40;;
20124;SDS011;10223;50.862;4.360;2023-05-02T13:53:56;7.78;;;3.78;;
20124;SDS011;10223;50.862;4.360;2023-05-02T13:56:23;10.82;;;3.92;;
20124;SDS011;10223;50.862;4.360;2023-05-02T13:58:50;11.65;;;3.85;;
20124;SDS011;10223;50.862;4.360;2023-05-02T14:01:17;8.05;;;4.10;;
20124;SDS011;10223;50.862;4.360;2023-05-02T14:03:44;10.95;;;3.67;;
20124;SDS011;10223;50.862;4.360;2023-05-02T14:06:10;12.85;;;8.82;;
20124;SDS011;10223;50.862;4.360;2023-05-02T14:08:39;7.60;;;3.40;;
20124;SDS011;10223;50.862;4.360;2023-05-02T14:11:06;13.00;;;4.15;;
20124;SDS011;10223;50.862;4.360;2023-05-02T14:13:32;14.95;;;7.22;;
20124;SDS011;10223;50.862;4.360;2023-05-02T14:15:59;13.10;;;3.58;;
20124;SDS011;10223;50.862;4.360;2023-05-02T14:18:26;14.05;;;8.55;;
20124;SDS011;10223;50.862;4.360;2023-05-02T14:20:53;15.25;;;6.25;;
20124;SDS011;10223;50.862;4.360;2023-05-02T14:23:21;9.13;;;3.80;;
20124;SDS011;10223;50.862;4.360;2023-05-02T14:25:50;10.02;;;4.03;;
20124;SDS011;10223;50.862;4.360;2023-05-02T14:28:17;7.28;;;2.92;;
20124;SDS011;10223;50.862;4.360;2023-05-02T14:30:44;10.88;;;3.80;;
20124;SDS011;10223;50.862;4.360;2023-05-02T14:33:13;8.75;;;3.50;;
20124;SDS011;10223;50.862;4.360;2023-05-02T14:35:39;16.20;;;3.75;;
20124;SDS011;10223;50.862;4.360;2023-05-02T14:38:06;8.65;;;3.60;;
20124;SDS011;10223;50.862;4.360;2023-05-02T14:40:33;7.88;;;3.60;;
20124;SDS011;10223;50.862;4.360;2023-05-02T14:43:02;14.25;;;3.67;;
20124;SDS011;10223;50.862;4.360;2023-05-02T14:45:28;9.55;;;3.30;;
20124;SDS011;10223;50.862;4.360;2023-05-02T14:47:55;11.07;;;3.15;;
20124;SDS011;10223;50.862;4.360;2023-05-02T14:50:22;9.00;;;3.10;;
20124;SDS011;10223;50.862;4.360;2023-05-02T14:52:50;8.93;;;3.88;;
20124;SDS011;10223;50.862;4.360;2023-05-02T14:55:17;9.48;;;3.65;;